Time;durP1;ratioP1;P1;durP2;ratioP2;P2;SDS_P1;SDS_P2;PMS_P1;PMS_P2;Temp;Humidity;BMP_temperature;BMP_pressure;BME280_temperature;BME280_humidity;BME280_pressure;Samples;Min_cycle;Max_cycle;Signal;HPM_P1;HPM_P2
2022/12/23 00:01:41;;;;;;;0.60;0.57;;;;;;;8.36;nan;95809.81;5085285;28;20238;-84
2022/12/23 00:04:09;;;;;;;0.50;0.50;;;;;;;8.32;nan;95824.78;5088435;28;20201;-84
2022/12/23 00:06:36;;;;;;;2.23;0.60;;;;;;;8.27;nan;95830.78;5088498;28;20197;-84
2022/12/23 00:09:03;;;;;;;2.53;0.67;;;;;;;8.27;nan;95832.66;5085338;28;20217;-83
2022/12/23 00:11:32;;;;;;;0.60;0.60;;;;;;;8.19;nan;95822.22;5096786;28;20462;-83
2022/12/23 00:16:52;;;;;;;0.57;0.57;;;;;;;8.17;nan;95827.00;5030251;28;20204;-84
2022/12/23 00:19:20;;;;;;;0.67;0.53;;;;;;;8.10;nan;95816.34;5075109;28;20233;-84
2022/12/23 00:21:48;;;;;;;0.47;0.47;;;;;;;8.20;nan;95827.38;5089118;28;20227;-83
2022/12/23 00:24:15;;;;;;;0.50;0.50;;;;;;;8.27;nan;95806.59;5084900;28;20201;-83
2022/12/23 00:26:44;;;;;;;0.50;0.50;;;;;;;8.21;nan;95810.19;5083596;28;20205;-83
2022/12/23 00:29:11;;;;;;;1.70;0.50;;;;;;;8.22;nan;95809.16;5086573;28;20203;-82
2022/12/23 00:31:38;;;;;;;1.60;0.70;;;;;;;8.15;nan;95803.06;5099680;28;20220;-83
2022/12/23 00:34:05;;;;;;;0.50;0.50;;;;;;;8.27;nan;95797.69;5089152;28;20255;-83
2022/12/23 00:36:32;;;;;;;0.60;0.60;;;;;;;8.33;nan;95804.91;5084515;28;20296;-85
2022/12/23 00:44:30;;;;;;;5.40;0.70;;;;;;;8.40;nan;95797.53;5091606;28;20220;-84
2022/12/23 00:46:57;;;;;;;1.40;0.57;;;;;;;8.45;nan;95783.38;5084315;28;20284;-83
2022/12/23 00:49:42;;;;;;;1.00;0.70;;;;;;;8.45;nan;95775.31;5081662;28;20212;-87
2022/12/23 00:52:11;;;;;;;0.60;0.60;;;;;;;8.45;nan;95786.91;5083248;28;20431;-89
2022/12/23 00:54:40;;;;;;;0.73;0.60;;;;;;;8.40;nan;95792.16;5078165;28;20188;-88
2022/12/23 00:57:08;;;;;;;0.77;0.60;;;;;;;8.38;nan;95763.84;5091357;28;20243;-87
2022/12/23 00:59:35;;;;;;;0.63;0.57;;;;;;;8.50;nan;95759.31;5086857;28;20201;-88
2022/12/23 01:07:32;;;;;;;0.50;0.50;;;;;;;8.56;nan;95767.28;5086874;28;20199;-88
2022/12/23 01:09:59;;;;;;;1.03;0.60;;;;;;;8.59;nan;95756.03;5086902;28;20201;-88
2022/12/23 01:12:27;;;;;;;0.50;0.50;;;;;;;8.59;nan;95739.09;5086779;28;20193;-88
2022/12/23 01:14:54;;;;;;;0.60;0.60;;;;;;;8.68;nan;95760.03;5080782;28;20201;-88
2022/12/23 01:17:21;;;;;;;0.50;0.50;;;;;;;8.61;nan;95775.47;5081823;28;20201;-88
2022/12/23 01:19:49;;;;;;;0.73;0.60;;;;;;;8.50;nan;95760.16;5092656;28;20216;-88
2022/12/23 01:22:16;;;;;;;0.50;0.50;;;;;;;8.62;nan;95782.50;5085533;28;20210;-88
2022/12/23 01:24:43;;;;;;;0.50;0.50;;;;;;;8.65;nan;95792.81;5079365;28;20224;-88
2022/12/23 01:27:11;;;;;;;0.70;0.60;;;;;;;8.68;nan;95807.66;5084973;28;20201;-88
2022/12/23 01:29:39;;;;;;;0.60;0.60;;;;;;;8.72;nan;95803.47;5078010;28;20296;-88
2022/12/23 01:32:06;;;;;;;0.60;0.60;;;;;;;8.72;nan;95806.16;5079091;28;20221;-88
2022/12/23 01:34:33;;;;;;;0.93;0.50;;;;;;;8.58;nan;95791.28;5077228;28;20254;-88
2022/12/23 01:37:00;;;;;;;1.37;0.57;;;;;;;8.71;nan;95788.34;5083900;28;20236;-89
2022/12/23 01:39:28;;;;;;;3.47;0.60;;;;;;;8.62;nan;95773.59;5096311;28;20254;-88
2022/12/23 01:45:00;;;;;;;1.07;0.67;;;;;;;8.59;nan;95799.09;5093046;28;20265;-89
2022/12/23 01:47:33;;;;;;;1.90;0.60;;;;;;;8.61;nan;95786.22;5096446;28;20207;-88
2022/12/23 01:50:06;;;;;;;7.23;0.60;;;;;;;8.68;nan;95775.34;5084441;28;20205;-88
2022/12/23 01:52:38;;;;;;;0.93;0.50;;;;;;;8.65;nan;95765.06;5090203;28;20212;-88
2022/12/23 01:55:06;;;;;;;0.50;0.50;;;;;;;8.63;nan;95794.06;5086093;28;20208;-88
2022/12/23 01:57:35;;;;;;;0.50;0.50;;;;;;;8.64;nan;95801.09;5092972;28;20207;-88
2022/12/23 02:05:38;;;;;;;0.50;0.50;;;;;;;8.63;nan;95796.78;5090740;28;20250;-88
2022/12/23 02:11:28;;;;;;;1.00;0.50;;;;;;;8.62;nan;95830.94;5087628;28;20220;-88
2022/12/23 02:17:20;;;;;;;0.50;0.50;;;;;;;8.66;nan;95821.34;5021226;28;20216;-89
2022/12/23 02:20:14;;;;;;;0.73;0.57;;;;;;;8.63;nan;95843.34;5039713;28;20333;-87
2022/12/23 02:23:07;;;;;;;0.60;0.60;;;;;;;8.60;nan;95853.72;5066386;28;20209;-88
2022/12/23 02:25:57;;;;;;;0.90;0.60;;;;;;;8.60;nan;95845.66;5088641;28;20225;-88
2022/12/23 02:28:49;;;;;;;0.60;0.60;;;;;;;8.68;nan;95813.03;5079869;28;20220;-88
2022/12/23 02:31:26;;;;;;;0.50;0.50;;;;;;;8.60;nan;95808.81;5086193;28;20232;-88
2022/12/23 02:34:01;;;;;;;0.97;0.50;;;;;;;8.51;nan;95812.88;5103801;28;20302;-89
2022/12/23 02:36:38;;;;;;;1.80;0.53;;;;;;;8.46;nan;95817.31;5087771;28;20213;-88
2022/12/23 02:39:10;;;;;;;0.47;0.47;;;;;;;8.52;nan;95819.06;5084282;28;20225;-89
2022/12/23 02:41:42;;;;;;;0.93;0.70;;;;;;;8.50;nan;95821.19;5090201;28;20197;-88
2022/12/23 02:44:22;;;;;;;1.20;0.60;;;;;;;8.49;nan;95824.94;5089864;28;20270;-88
2022/12/23 02:46:57;;;;;;;1.47;0.70;;;;;;;8.49;nan;95806.09;5083101;28;20255;-88
2022/12/23 02:49:29;;;;;;;0.70;0.70;;;;;;;8.43;nan;95820.47;5073263;28;20197;-87
2022/12/23 02:52:01;;;;;;;0.70;0.70;;;;;;;8.49;nan;95833.00;5092104;28;20229;-88
2022/12/23 02:54:31;;;;;;;1.70;0.67;;;;;;;8.45;nan;95839.88;5087610;28;20211;-88
2022/12/23 02:57:01;;;;;;;1.37;0.73;;;;;;;8.43;nan;95836.59;5079835;28;20233;-88
2022/12/23 02:59:33;;;;;;;1.30;0.60;;;;;;;8.39;nan;95835.44;5095339;28;20204;-88
2022/12/23 03:02:01;;;;;;;1.90;0.80;;;;;;;8.32;nan;95833.66;5102776;28;20208;-88
2022/12/23 03:04:28;;;;;;;0.70;0.70;;;;;;;8.39;nan;95819.28;5089673;28;20231;-89
2022/12/23 03:06:57;;;;;;;0.73;0.63;;;;;;;8.38;nan;95790.75;5089592;28;20282;-87
2022/12/23 03:09:34;;;;;;;2.00;0.80;;;;;;;8.32;nan;95787.94;5096850;27;20244;-88
2022/12/23 03:12:08;;;;;;;3.40;0.80;;;;;;;8.42;nan;95797.31;5083144;28;20200;-88
2022/12/23 03:14:51;;;;;;;0.60;0.60;;;;;;;8.43;nan;95817.75;5082317;28;20207;-89
2022/12/23 03:17:35;;;;;;;0.50;0.50;;;;;;;8.35;nan;95805.47;5079960;28;20197;-88
2022/12/23 03:20:13;;;;;;;1.23;0.60;;;;;;;8.37;nan;95792.63;5086090;28;20232;-88
2022/12/23 03:22:49;;;;;;;2.93;0.70;;;;;;;8.33;nan;95778.81;5080581;28;20201;-87
2022/12/23 03:25:22;;;;;;;1.63;0.80;;;;;;;8.31;nan;95801.59;5086085;28;20281;-88
2022/12/23 03:27:57;;;;;;;1.30;1.13;;;;;;;8.37;nan;95791.78;5092187;28;20196;-87
2022/12/23 03:30:25;;;;;;;1.63;1.17;;;;;;;8.34;nan;95774.22;5085693;28;20204;-89
2022/12/23 03:32:59;;;;;;;0.70;0.70;;;;;;;8.39;nan;95795.06;5086849;28;20212;-87
2022/12/23 03:35:35;;;;;;;0.73;0.63;;;;;;;8.37;nan;95805.25;5091365;28;20200;-89
2022/12/23 03:38:04;;;;;;;1.73;0.67;;;;;;;8.38;nan;95815.78;5084409;28;20232;-87
2022/12/23 03:40:36;;;;;;;0.93;0.80;;;;;;;8.30;nan;95833.03;5076700;28;20213;-90
2022/12/23 03:43:07;;;;;;;1.47;0.60;;;;;;;8.37;nan;95848.28;5101053;28;20556;-88
2022/12/23 03:45:40;;;;;;;2.17;0.80;;;;;;;8.29;nan;95823.31;5084818;28;20212;-88
2022/12/23 03:48:17;;;;;;;3.80;1.00;;;;;;;8.26;nan;95829.16;5086538;28;20311;-89
2022/12/23 03:50:48;;;;;;;0.60;0.60;;;;;;;8.19;nan;95847.25;5090665;28;20269;-87
2022/12/23 03:53:20;;;;;;;1.20;1.10;;;;;;;8.22;nan;95841.44;5085708;28;20228;-88
2022/12/23 03:55:53;;;;;;;4.53;1.17;;;;;;;8.30;nan;95862.63;5073890;28;20201;-88
2022/12/23 03:58:28;;;;;;;3.27;1.17;;;;;;;8.35;nan;95852.00;5083339;28;20216;-87
2022/12/23 04:00:59;;;;;;;1.20;1.10;;;;;;;8.21;nan;95828.19;5091968;28;20204;-88
2022/12/23 04:03:35;;;;;;;2.03;1.07;;;;;;;8.19;nan;95851.81;5076050;28;20205;-87
2022/12/23 04:06:10;;;;;;;1.57;1.10;;;;;;;8.20;nan;95873.09;5087104;28;20260;-87
2022/12/23 04:08:39;;;;;;;1.73;1.40;;;;;;;8.17;nan;95854.72;5084295;28;20212;-87
2022/12/23 04:11:07;;;;;;;3.23;1.20;;;;;;;8.12;nan;95851.91;5082702;28;20201;-87
2022/12/23 04:13:34;;;;;;;3.43;2.33;;;;;;;8.17;nan;95865.47;5081951;28;20265;-87
2022/12/23 04:16:03;;;;;;;2.27;1.70;;;;;;;8.15;nan;95861.38;5085972;28;20217;-88
2022/12/23 04:18:31;;;;;;;2.60;2.37;;;;;;;8.17;nan;95862.78;5082516;28;20217;-87
2022/12/23 04:20:58;;;;;;;2.33;1.53;;;;;;;8.17;nan;95859.28;5082695;28;20216;-88
2022/12/23 04:23:25;;;;;;;3.23;2.50;;;;;;;8.11;nan;95879.84;5082640;28;20212;-89
2022/12/23 04:25:52;;;;;;;3.87;2.00;;;;;;;8.13;nan;95887.69;5079022;28;20231;-88
2022/12/23 04:28:20;;;;;;;2.20;1.87;;;;;;;8.26;nan;95893.69;5093939;28;20228;-88
2022/12/23 04:30:47;;;;;;;1.80;1.70;;;;;;;8.29;nan;95857.47;5093818;28;20207;-88
2022/12/23 04:33:14;;;;;;;1.60;1.20;;;;;;;8.31;nan;95837.41;5107259;27;20299;-87
2022/12/23 04:35:43;;;;;;;1.87;1.60;;;;;;;8.25;nan;95845.53;5088726;28;20192;-88
2022/12/23 04:38:10;;;;;;;2.70;1.57;;;;;;;8.21;nan;95849.72;5078883;28;20291;-88
2022/12/23 04:40:37;;;;;;;2.90;1.50;;;;;;;8.25;nan;95857.09;5078594;28;20229;-88
2022/12/23 04:43:04;;;;;;;1.97;1.50;;;;;;;8.26;nan;95844.47;5098195;28;20258;-87
2022/12/23 04:45:32;;;;;;;1.87;1.50;;;;;;;8.28;nan;95839.69;5086193;28;20336;-88
2022/12/23 04:47:59;;;;;;;1.30;1.20;;;;;;;8.18;nan;95845.59;5088268;28;20236;-88
2022/12/23 04:50:26;;;;;;;1.77;1.30;;;;;;;8.19;nan;95849.13;5089424;28;20197;-88
2022/12/23 04:52:56;;;;;;;2.80;1.40;;;;;;;8.12;nan;95827.69;5088049;28;20265;-87
2022/12/23 04:55:23;;;;;;;3.27;1.40;;;;;;;8.21;nan;95837.09;5080875;28;20209;-88
2022/12/23 04:57:50;;;;;;;3.63;1.80;;;;;;;8.20;nan;95840.81;5090136;28;20205;-88
2022/12/23 05:00:18;;;;;;;5.13;1.47;;;;;;;8.23;nan;95834.19;5088107;28;20262;-88
2022/12/23 05:02:45;;;;;;;2.70;1.30;;;;;;;8.23;nan;95829.63;5086427;28;20200;-89
2022/12/23 05:05:12;;;;;;;3.60;1.50;;;;;;;8.21;nan;95845.16;5084791;28;20197;-88
2022/12/23 05:07:39;;;;;;;2.70;1.20;;;;;;;8.19;nan;95833.81;5085017;28;20220;-89
2022/12/23 05:10:09;;;;;;;1.13;1.00;;;;;;;8.23;nan;95829.63;5094064;28;20197;-88
2022/12/23 05:12:36;;;;;;;1.27;0.90;;;;;;;8.26;nan;95821.06;5086881;28;20227;-88
2022/12/23 05:15:04;;;;;;;1.37;1.03;;;;;;;8.28;nan;95819.00;5088452;28;20270;-89
2022/12/23 05:17:33;;;;;;;2.10;1.60;;;;;;;8.34;nan;95823.47;5081524;28;20205;-87
2022/12/23 05:20:01;;;;;;;2.67;1.73;;;;;;;8.42;nan;95818.84;5096783;28;20229;-87
2022/12/23 05:22:28;;;;;;;1.87;1.43;;;;;;;8.37;nan;95816.81;5091308;28;20199;-88
2022/12/23 05:24:55;;;;;;;8.40;4.80;;;;;;;8.45;nan;95815.69;5093203;28;20219;-88
2022/12/23 05:27:24;;;;;;;3.73;1.90;;;;;;;8.49;nan;95819.56;5088181;28;20228;-88
2022/12/23 05:29:51;;;;;;;1.80;1.20;;;;;;;8.46;nan;95828.09;5090360;28;20201;-88
2022/12/23 05:32:18;;;;;;;3.63;1.80;;;;;;;8.39;nan;95827.34;5084338;28;20259;-88
2022/12/23 05:34:45;;;;;;;3.53;2.13;;;;;;;8.40;nan;95837.91;5084880;28;20205;-88
2022/12/23 05:37:13;;;;;;;3.23;2.50;;;;;;;8.43;nan;95833.91;5090675;28;20282;-87
2022/12/23 05:39:40;;;;;;;2.83;1.83;;;;;;;8.53;nan;95831.50;5087513;28;20213;-88
2022/12/23 05:42:07;;;;;;;6.50;3.27;;;;;;;8.48;nan;95816.03;5083742;28;20225;-88
2022/12/23 05:44:35;;;;;;;5.17;2.30;;;;;;;8.45;nan;95812.97;5090646;28;20292;-87
2022/12/23 05:47:02;;;;;;;2.67;2.10;;;;;;;8.42;nan;95816.94;5082620;28;20248;-88
2022/12/23 05:49:30;;;;;;;4.57;1.80;;;;;;;8.41;nan;95780.34;5089449;28;20284;-87
2022/12/23 05:51:57;;;;;;;1.83;1.17;;;;;;;8.35;nan;95763.25;5085476;28;20232;-89
2022/12/23 05:54:24;;;;;;;0.80;0.80;;;;;;;8.52;nan;95793.00;5090378;28;20220;-88
2022/12/23 05:56:52;;;;;;;2.93;1.00;;;;;;;8.51;nan;95793.22;5083831;28;20223;-88
2022/12/23 05:59:19;;;;;;;0.60;0.60;;;;;;;8.57;nan;95808.47;5085382;28;20219;-88
2022/12/23 06:01:47;;;;;;;1.70;1.00;;;;;;;8.61;nan;95817.69;5085167;28;20209;-88
2022/12/23 06:04:14;;;;;;;0.90;0.90;;;;;;;8.64;nan;95817.25;5092995;28;20201;-88
2022/12/23 06:06:41;;;;;;;1.20;1.10;;;;;;;8.56;nan;95814.91;5088796;28;20232;-88
2022/12/23 06:09:09;;;;;;;1.53;0.93;;;;;;;8.59;nan;95814.44;5087224;28;20231;-88
2022/12/23 06:11:36;;;;;;;2.30;1.50;;;;;;;8.65;nan;95814.34;5083994;28;20201;-88
2022/12/23 06:14:06;;;;;;;2.40;1.20;;;;;;;8.64;nan;95826.16;5075124;28;20263;-89
2022/12/23 06:16:33;;;;;;;5.33;1.50;;;;;;;8.62;nan;95825.56;5085157;28;20206;-88
2022/12/23 06:19:01;;;;;;;2.00;1.40;;;;;;;8.66;nan;95832.13;5095630;28;20219;-88
2022/12/23 06:21:30;;;;;;;2.33;1.63;;;;;;;8.64;nan;95822.63;5091737;28;20212;-87
2022/12/23 06:23:57;;;;;;;3.20;1.93;;;;;;;8.67;nan;95832.94;5084676;28;20204;-89
2022/12/23 06:26:25;;;;;;;2.57;1.70;;;;;;;8.58;nan;95839.72;5088087;28;20213;-89
2022/12/23 06:28:52;;;;;;;3.10;1.40;;;;;;;8.59;nan;95850.22;5077000;28;20274;-88
2022/12/23 06:31:19;;;;;;;1.27;0.83;;;;;;;8.75;nan;95859.53;5096378;28;20216;-89
2022/12/23 06:33:46;;;;;;;1.13;1.00;;;;;;;8.72;nan;95860.81;5080963;28;20272;-88
2022/12/23 06:36:14;;;;;;;2.30;1.37;;;;;;;8.62;nan;95827.41;5084748;28;20210;-89
2022/12/23 06:38:42;;;;;;;3.80;2.30;;;;;;;8.67;nan;95841.03;5087280;28;20267;-89
2022/12/23 06:41:09;;;;;;;4.17;1.43;;;;;;;8.71;nan;95842.19;5086235;28;20219;-89
2022/12/23 06:43:36;;;;;;;2.23;1.53;;;;;;;8.68;nan;95850.72;5083758;28;20272;-89
2022/12/23 06:46:03;;;;;;;4.83;1.03;;;;;;;8.72;nan;95850.03;5080165;28;20501;-89
2022/12/23 06:48:30;;;;;;;4.67;1.90;;;;;;;8.68;nan;95853.41;5092645;28;20262;-89
2022/12/23 06:50:58;;;;;;;3.93;1.40;;;;;;;8.69;nan;95863.13;5087134;28;20262;-89
2022/12/23 06:53:27;;;;;;;3.10;1.50;;;;;;;8.75;nan;95867.59;5079819;28;20219;-89
2022/12/23 06:55:59;;;;;;;1.40;1.07;;;;;;;8.83;nan;95858.38;5083819;28;20287;-89
2022/12/23 06:58:27;;;;;;;3.10;1.40;;;;;;;8.82;nan;95867.50;5086110;28;20204;-89
2022/12/23 07:00:54;;;;;;;2.17;1.27;;;;;;;8.81;nan;95890.06;5094598;28;20321;-88
2022/12/23 07:03:22;;;;;;;2.77;1.37;;;;;;;8.80;nan;95875.78;5096056;28;20198;-89
2022/12/23 07:05:49;;;;;;;4.17;1.90;;;;;;;8.77;nan;95900.47;5074566;28;20221;-89
2022/12/23 07:08:17;;;;;;;8.03;2.13;;;;;;;8.73;nan;95897.44;5088428;28;20243;-88
2022/12/23 07:10:46;;;;;;;4.73;1.90;;;;;;;8.66;nan;95899.41;5083216;28;20193;-87
2022/12/23 07:13:13;;;;;;;3.30;1.60;;;;;;;8.66;nan;95901.28;5088320;28;20253;-89
2022/12/23 07:15:40;;;;;;;3.70;2.20;;;;;;;8.73;nan;95910.06;5081007;28;20212;-88
2022/12/23 07:18:07;;;;;;;2.70;1.53;;;;;;;8.69;nan;95908.88;5087562;28;20205;-89
2022/12/23 07:20:34;;;;;;;3.27;1.17;;;;;;;8.77;nan;95923.88;5085254;28;20220;-89
2022/12/23 07:23:02;;;;;;;0.70;0.70;;;;;;;8.78;nan;95937.13;5078126;28;20208;-88
2022/12/23 07:25:29;;;;;;;2.70;1.37;;;;;;;8.77;nan;95932.78;5089340;28;20245;-89
2022/12/23 07:27:59;;;;;;;5.67;1.90;;;;;;;8.75;nan;95921.44;5091408;28;20311;-89
2022/12/23 07:30:27;;;;;;;3.03;2.57;;;;;;;8.76;nan;95912.31;5087910;28;20247;-89
2022/12/23 07:32:54;;;;;;;4.40;2.30;;;;;;;8.72;nan;95908.44;5082423;28;20222;-89
2022/12/23 07:35:22;;;;;;;3.80;2.20;;;;;;;8.75;nan;95917.94;5072994;28;20270;-88
2022/12/23 07:37:51;;;;;;;4.10;1.90;;;;;;;8.73;nan;95923.53;5083241;28;20323;-89
2022/12/23 07:40:19;;;;;;;5.17;1.87;;;;;;;8.74;nan;95938.63;5082706;28;20216;-89
2022/12/23 07:42:49;;;;;;;6.03;1.97;;;;;;;8.74;nan;95949.41;5083323;28;20197;-88
2022/12/23 07:45:17;;;;;;;2.53;1.50;;;;;;;8.74;nan;95957.47;5084191;28;20205;-90
2022/12/23 07:47:47;;;;;;;3.20;1.53;;;;;;;8.79;nan;95954.09;5086162;28;20220;-88
2022/12/23 07:50:16;;;;;;;2.90;1.53;;;;;;;8.82;nan;95954.47;5079605;28;20203;-89
2022/12/23 07:52:42;;;;;;;2.80;1.73;;;;;;;8.84;nan;95952.38;5084319;28;20242;-89
2022/12/23 07:55:10;;;;;;;4.20;1.60;;;;;;;8.89;nan;95971.34;5094421;28;20216;-89
2022/12/23 07:57:37;;;;;;;3.23;2.00;;;;;;;8.78;nan;95955.97;5087460;28;20205;-90
2022/12/23 08:00:08;;;;;;;8.17;2.43;;;;;;;8.83;nan;95969.56;5078187;28;20206;-89
2022/12/23 08:02:43;;;;;;;5.27;2.47;;;;;;;8.82;nan;95981.38;5091900;28;20207;-90
2022/12/23 08:05:10;;;;;;;4.30;2.67;;;;;;;8.75;nan;95959.13;5086338;28;20258;-88
2022/12/23 08:07:38;;;;;;;3.07;2.10;;;;;;;8.91;nan;95976.50;5092078;28;20228;-90
2022/12/23 08:10:09;;;;;;;3.70;1.93;;;;;;;8.92;nan;95965.50;5095038;28;20216;-84
2022/12/23 08:12:36;;;;;;;2.90;1.90;;;;;;;8.91;nan;95954.97;5084079;28;20211;-86
2022/12/23 08:15:03;;;;;;;6.93;2.17;;;;;;;8.84;nan;95957.75;5087015;28;20200;-86
2022/12/23 08:17:31;;;;;;;6.20;2.17;;;;;;;8.87;nan;95975.31;5091415;28;20209;-86
2022/12/23 08:19:59;;;;;;;5.43;2.73;;;;;;;8.84;nan;95965.84;5100153;28;20229;-87
2022/12/23 08:22:26;;;;;;;8.03;3.27;;;;;;;8.84;nan;95968.53;5088346;28;20225;-85
2022/12/23 08:24:54;;;;;;;5.33;2.87;;;;;;;8.83;nan;95961.50;5103029;28;20261;-87
2022/12/23 08:27:21;;;;;;;8.07;3.00;;;;;;;8.84;nan;95971.22;5089443;28;20224;-87
2022/12/23 08:29:48;;;;;;;9.33;3.47;;;;;;;8.79;nan;95954.91;5087520;28;20205;-87
2022/12/23 08:32:15;;;;;;;5.67;3.20;;;;;;;8.81;nan;95962.75;5086273;28;20272;-85
2022/12/23 08:34:42;;;;;;;6.97;2.47;;;;;;;8.89;nan;95965.13;5086850;28;20301;-86
2022/12/23 08:37:10;;;;;;;6.70;2.60;;;;;;;8.86;nan;95955.63;5085761;28;20257;-86
2022/12/23 08:39:37;;;;;;;3.87;2.23;;;;;;;8.96;nan;95957.78;5079509;28;20284;-85
2022/12/23 08:42:06;;;;;;;3.53;1.93;;;;;;;8.93;nan;95959.03;5094009;28;20267;-86
2022/12/23 08:44:34;;;;;;;3.90;2.53;;;;;;;8.95;nan;95967.72;5089340;28;20201;-85
2022/12/23 08:47:01;;;;;;;4.93;2.20;;;;;;;9.00;nan;95972.44;5080216;28;20280;-86
2022/12/23 08:49:28;;;;;;;4.13;2.47;;;;;;;8.97;nan;95962.94;5097840;28;20204;-85
2022/12/23 08:51:55;;;;;;;6.10;3.10;;;;;;;9.08;nan;95967.53;5088975;28;20228;-87
2022/12/23 08:54:24;;;;;;;6.17;3.47;;;;;;;9.08;nan;95967.53;5084804;28;20200;-87
2022/12/23 08:56:51;;;;;;;5.50;3.33;;;;;;;9.07;nan;95957.81;5077620;28;20211;-84
2022/12/23 08:59:18;;;;;;;5.07;2.60;;;;;;;9.11;nan;95958.16;5086418;28;20211;-88
2022/12/23 09:01:47;;;;;;;5.67;1.93;;;;;;;9.07;nan;95948.91;5089703;28;20220;-87
2022/12/23 09:04:15;;;;;;;3.53;2.07;;;;;;;9.19;nan;95954.31;5085107;28;20307;-88
2022/12/23 09:06:44;;;;;;;5.57;3.03;;;;;;;9.18;nan;95953.53;5088337;28;20204;-89
2022/12/23 09:09:13;;;;;;;7.60;4.17;;;;;;;9.29;nan;95949.19;5080568;28;20216;-86
2022/12/23 09:11:42;;;;;;;6.37;4.77;;;;;;;9.31;nan;95941.69;5088417;28;20209;-88
2022/12/23 09:14:10;;;;;;;6.23;3.33;;;;;;;9.27;nan;95927.06;5086241;28;20272;-86
2022/12/23 09:16:39;;;;;;;7.67;4.50;;;;;;;9.33;nan;95939.59;5091057;28;20465;-86
2022/12/23 09:19:07;;;;;;;12.73;6.97;;;;;;;9.38;nan;95943.22;5086866;28;20220;-87
2022/12/23 09:21:34;;;;;;;6.00;4.80;;;;;;;9.50;nan;95935.16;5089901;28;20307;-86
2022/12/23 09:24:03;;;;;;;6.07;4.57;;;;;;;9.52;nan;95927.69;5097749;27;20300;-87
2022/12/23 09:26:31;;;;;;;9.63;4.40;;;;;;;9.56;nan;95931.53;5082037;28;21901;-86
2022/12/23 09:29:00;;;;;;;5.10;4.20;;;;;;;9.62;nan;95941.38;5087736;28;20315;-86
2022/12/23 09:31:27;;;;;;;7.00;4.67;;;;;;;9.69;nan;95960.97;5085796;28;20201;-87
2022/12/23 09:33:56;;;;;;;5.43;3.63;;;;;;;9.77;nan;95962.50;5087966;28;20208;-86
2022/12/23 09:36:23;;;;;;;2.43;1.77;;;;;;;9.80;nan;95935.88;5084306;28;20209;-85
2022/12/23 09:38:54;;;;;;;3.80;3.40;;;;;;;9.93;nan;95936.69;5086317;28;20602;-85
2022/12/23 09:42:03;;;;;;;3.63;2.43;;;;;;;10.00;nan;95929.28;5088384;28;20204;-86
2022/12/23 09:44:49;;;;;;;2.07;1.20;;;;;;;9.93;nan;95917.81;5071872;28;20232;-86
2022/12/23 09:47:19;;;;;;;3.17;2.00;;;;;;;9.99;nan;95925.78;5087975;28;20220;-86
2022/12/23 09:49:49;;;;;;;7.63;4.93;;;;;;;9.95;nan;95913.81;5089823;28;20242;-85
2022/12/23 09:52:24;;;;;;;7.47;4.03;;;;;;;10.00;nan;95923.91;5089899;28;20301;-86
2022/12/23 09:54:54;;;;;;;3.83;1.93;;;;;;;9.98;nan;95916.03;5088013;28;20205;-85
2022/12/23 09:57:26;;;;;;;5.03;2.53;;;;;;;10.02;nan;95928.00;5085638;28;20208;-86
2022/12/23 10:00:11;;;;;;;7.47;4.60;;;;;;;10.12;nan;95922.81;5090839;28;20246;-85
2022/12/23 10:03:00;;;;;;;3.57;2.73;;;;;;;10.01;nan;95894.00;5075800;28;20227;-86
2022/12/23 10:05:39;;;;;;;3.17;1.37;;;;;;;9.97;nan;95882.03;5085496;28;20228;-86
2022/12/23 10:08:17;;;;;;;2.70;1.40;;;;;;;10.04;nan;95914.25;5089418;28;20339;-86
2022/12/23 10:10:48;;;;;;;1.80;0.90;;;;;;;10.02;nan;95916.38;5089592;28;20193;-86
2022/12/23 10:13:24;;;;;;;2.30;0.80;;;;;;;10.06;nan;95929.16;5087065;28;20200;-85
2022/12/23 10:15:54;;;;;;;5.67;3.63;;;;;;;10.03;nan;95931.53;5089034;28;20231;-86
2022/12/23 10:18:27;;;;;;;3.23;1.20;;;;;;;9.98;nan;95918.72;5070857;28;20208;-85
2022/12/23 10:21:01;;;;;;;16.07;10.93;;;;;;;9.92;nan;95917.00;5084855;28;20259;-85
2022/12/23 10:23:34;;;;;;;4.10;2.87;;;;;;;9.83;nan;95913.84;5084643;28;20297;-85
2022/12/23 10:26:07;;;;;;;9.40;4.67;;;;;;;9.91;nan;95915.34;5080916;28;20235;-85
2022/12/23 10:28:34;;;;;;;11.43;7.40;;;;;;;10.02;nan;95905.59;5082915;28;20217;-86
2022/12/23 10:31:11;;;;;;;4.70;3.00;;;;;;;9.92;nan;95890.03;5084735;28;20209;-86
2022/12/23 10:33:46;;;;;;;13.00;9.10;;;;;;;9.99;nan;95916.84;5078588;28;20197;-85
2022/12/23 10:36:22;;;;;;;3.60;2.47;;;;;;;10.03;nan;95912.63;5091918;28;20241;-86
2022/12/23 10:38:59;;;;;;;1.30;1.10;;;;;;;10.02;nan;95916.38;5079268;28;20199;-85
2022/12/23 10:41:37;;;;;;;23.03;15.20;;;;;;;9.99;nan;95923.06;5083551;28;20208;-85
2022/12/23 10:44:24;;;;;;;23.37;13.37;;;;;;;9.94;nan;95908.66;5080352;28;20295;-84
2022/12/23 10:47:02;;;;;;;8.47;5.50;;;;;;;10.01;nan;95912.06;5096327;28;20197;-85
2022/12/23 10:49:39;;;;;;;2.60;1.40;;;;;;;9.92;nan;95897.28;5075542;28;20231;-84
2022/12/23 10:52:13;;;;;;;3.53;1.50;;;;;;;9.97;nan;95898.22;5077412;28;20285;-85
2022/12/23 10:54:44;;;;;;;3.43;2.43;;;;;;;10.00;nan;95880.75;5080095;28;20228;-86
2022/12/23 10:57:14;;;;;;;10.03;6.50;;;;;;;10.03;nan;95856.00;5085941;28;20200;-86
2022/12/23 10:59:41;;;;;;;10.90;5.90;;;;;;;10.03;nan;95850.59;5081691;28;20459;-85
2022/12/23 11:02:32;;;;;;;7.43;4.87;;;;;;;9.99;nan;95847.56;5082160;28;20304;-84
2022/12/23 11:04:59;;;;;;;22.93;14.23;;;;;;;10.06;nan;95859.03;5084220;28;20217;-85
2022/12/23 11:07:29;;;;;;;12.97;7.00;;;;;;;10.00;nan;95851.06;5077091;28;20202;-85
2022/12/23 11:10:01;;;;;;;12.20;6.37;;;;;;;10.04;nan;95839.56;5082969;28;20209;-84
2022/12/23 11:12:39;;;;;;;2.63;2.07;;;;;;;10.11;nan;95851.06;5081051;28;20292;-84
2022/12/23 11:15:26;;;;;;;4.93;2.70;;;;;;;10.11;nan;95867.25;5080126;28;20223;-85
2022/12/23 11:18:07;;;;;;;3.57;1.50;;;;;;;10.12;nan;95878.84;5080065;28;20277;-86
2022/12/23 11:20:36;;;;;;;4.43;2.27;;;;;;;10.20;nan;95870.41;5075715;28;20220;-85
2022/12/23 11:23:08;;;;;;;10.20;5.87;;;;;;;10.18;nan;95848.25;5085130;28;20200;-87
2022/12/23 11:25:39;;;;;;;5.00;2.13;;;;;;;10.25;nan;95851.59;5076720;28;20317;-86
2022/12/23 11:28:16;;;;;;;2.60;1.50;;;;;;;10.31;nan;95856.03;5079595;28;20313;-87
2022/12/23 11:30:53;;;;;;;7.80;4.77;;;;;;;10.38;nan;95848.59;5091350;28;20216;-85
2022/12/23 11:33:26;;;;;;;1.47;1.20;;;;;;;10.49;nan;95850.44;5069159;28;20204;-86
2022/12/23 11:36:03;;;;;;;4.23;1.10;;;;;;;10.50;nan;95843.19;5080733;28;20223;-85
2022/12/23 11:38:31;;;;;;;2.00;0.90;;;;;;;10.41;nan;95834.66;5081205;28;20228;-86
2022/12/23 11:40:59;;;;;;;24.97;11.67;;;;;;;10.45;nan;95853.88;5078808;28;20200;-86
2022/12/23 11:43:28;;;;;;;2.00;1.50;;;;;;;10.57;nan;95843.84;5086795;28;20204;-87
2022/12/23 11:46:17;;;;;;;2.40;1.40;;;;;;;10.55;nan;95849.47;5082816;28;20197;-88
2022/12/23 11:48:46;;;;;;;3.77;1.00;;;;;;;10.56;nan;95851.13;5082075;28;20229;-86
2022/12/23 11:51:13;;;;;;;0.80;0.80;;;;;;;10.44;nan;95836.88;5082547;28;20295;-86
2022/12/23 11:53:43;;;;;;;2.03;1.17;;;;;;;10.47;nan;95849.03;5073278;28;20197;-87
2022/12/23 11:56:14;;;;;;;4.03;1.30;;;;;;;10.43;nan;95851.44;5083035;28;20208;-86
2022/12/23 11:58:48;;;;;;;6.07;1.40;;;;;;;10.43;nan;95854.13;5076897;28;20227;-87
2022/12/23 12:01:20;;;;;;;1.10;1.00;;;;;;;10.42;nan;95846.25;5086150;28;20258;-87
2022/12/23 12:03:53;;;;;;;5.67;2.63;;;;;;;10.39;nan;95838.63;5087594;28;20227;-87
2022/12/23 12:06:22;;;;;;;8.97;4.27;;;;;;;10.40;nan;95843.81;5087937;28;20201;-89
2022/12/23 12:08:52;;;;;;;42.30;24.83;;;;;;;10.38;nan;95829.72;5076972;28;20227;-87
2022/12/23 12:11:22;;;;;;;3.33;2.17;;;;;;;10.46;nan;95831.25;5087934;28;20224;-88
2022/12/23 12:13:52;;;;;;;1.53;1.00;;;;;;;10.38;nan;95835.13;5088843;28;20232;-88
2022/12/23 12:16:45;;;;;;;9.50;5.60;;;;;;;10.37;nan;95835.38;5089402;28;20208;-86
2022/12/23 12:19:20;;;;;;;9.70;6.47;;;;;;;10.41;nan;95829.25;5082949;28;20217;-85
2022/12/23 12:21:50;;;;;;;5.87;4.07;;;;;;;10.40;nan;95830.31;5086368;28;20234;-85
2022/12/23 12:24:22;;;;;;;1.60;1.40;;;;;;;10.41;nan;95837.34;5091506;28;20223;-86
2022/12/23 12:26:54;;;;;;;6.37;2.77;;;;;;;10.28;nan;95837.66;5089748;28;20258;-86
2022/12/23 12:29:27;;;;;;;5.10;3.40;;;;;;;10.18;nan;95821.25;5107669;28;20225;-87
2022/12/23 12:31:57;;;;;;;6.60;4.00;;;;;;;10.24;nan;95823.81;5088748;28;20232;-87
2022/12/23 12:34:42;;;;;;;5.67;4.03;;;;;;;10.15;nan;95830.59;5080881;28;20204;-86
2022/12/23 12:37:18;;;;;;;13.50;6.77;;;;;;;10.10;nan;95822.44;5100048;28;20299;-86
2022/12/23 12:39:53;;;;;;;6.73;4.63;;;;;;;10.20;nan;95824.53;5080139;28;20221;-85
2022/12/23 12:42:29;;;;;;;2.10;1.00;;;;;;;10.09;nan;95793.81;5090595;28;20208;-86